Terminal Aerodrome Forecast
Issued by NWS Chicago, IL

Home | Current Version | Previous Version | Graphics & Text | Print | Product List | Glossary On
Versions: 1 2 3 4 5 6 7 8 9 10 11 12 13 14 15 16 17 18 19 20 21 22 23 24 25
072
FTUS43 KLOT 151135
TAFRFD
TAF
KRFD 151135Z 1512/1612 22007KT 1SM BR OVC003
      TEMPO 1512/1516 1/2SM -DZ FG OVC002
     FM151600 27004KT 3/4SM BR OVC003
     FM152000 32005KT 2SM BR OVC006
     FM152300 33008KT 5SM BR OVC010
     FM160400 32014G19KT P6SM BKN015 OVC025=

USA.gov is the U.S. government's official web portal to all federal, state and local government web resources and services.